Flight NumberQSM339I Date22.01.2021
Departure AirportRPVP Arrival AirportRCTP
Departure Time1.43Arrival Time4.04
Pilot In CommandSaeed Yousefi Block Time2.30 Hours
Pilot Rating100 % AircraftEP-QIF [ A340-300 ]


Distance933.00 Nm. Passengers356
Fuel Used19,641 Kg. Cargo166 Kg
Expense Details Income Details
Fuel Cost17,864 v$Ticket Sales76,896 v$
Pilot Salary32,748 v$ Cargo income333.00 v$
Crew Salary1,780 v$ Bonus38,986 v$
Gross Profit201,168 v$ ( 5,029,200 v$ )

Client Versionv2.4.0 Max Simrate1
Flight Critique Pilot CommentsRCTP 220800Z 03012KT 9999 FEW012 BKN025 BKN050 22/19 Q1010 NOSIG RMK A2983 - ILS05L